createdAt,value
2019-02-16T00:01:55.457Z,102150.41
2019-02-16T00:08:01.205Z,102157.58
2019-02-16T00:14:07.482Z,102158.28
2019-02-16T00:20:13.512Z,102147.88
2019-02-16T00:26:19.487Z,102150.27
2019-02-16T00:32:25.333Z,102152.02
2019-02-16T00:38:31.095Z,102146.53
2019-02-16T00:44:38.665Z,102141.64
2019-02-16T00:50:44.375Z,102147.94
2019-02-16T00:56:50.225Z,102143.75
2019-02-16T01:02:56.067Z,102143.19
2019-02-16T01:09:01.784Z,102134.11
2019-02-16T01:15:09.479Z,102122.59
2019-02-16T01:21:22.608Z,102120.14
2019-02-16T01:27:22.865Z,102114.58
2019-02-16T01:33:28.658Z,102113.72
2019-02-16T01:39:34.740Z,102109.66
2019-02-16T01:45:40.457Z,102102.57
2019-02-16T01:51:46.478Z,102105.57
2019-02-16T01:57:52.398Z,102102.28
2019-02-16T02:03:58.147Z,102094.39
2019-02-16T02:10:04.040Z,102087.22
2019-02-16T02:16:09.760Z,102083.45
2019-02-16T02:22:15.472Z,102077.77
2019-02-16T02:28:21.211Z,102069.09
2019-02-16T02:34:27.815Z,102080.83
2019-02-16T02:40:33.886Z,102079.25
2019-02-16T02:46:39.882Z,102080.23
2019-02-16T02:52:45.620Z,102081.84
2019-02-16T02:58:51.596Z,102070.81
2019-02-16T03:04:57.438Z,102081.55
2019-02-16T03:11:03.291Z,102081.89
2019-02-16T03:17:09.068Z,102077.39
2019-02-16T03:23:22.609Z,102078.56
2019-02-16T03:30:35.945Z,102068.39
2019-02-16T03:37:28.760Z,102063.13
2019-02-16T03:43:34.697Z,102061.03
2019-02-16T03:49:40.664Z,102060.87
2019-02-16T03:55:46.500Z,102055.38
2019-02-16T04:01:52.224Z,102056.83
2019-02-16T04:07:57.947Z,102050.45
2019-02-16T04:14:03.707Z,102052.88
2019-02-16T04:20:09.671Z,102052.16
2019-02-16T04:26:15.430Z,102040.05
2019-02-16T04:32:21.446Z,102039.34
2019-02-16T04:38:27.441Z,102039.48
2019-02-16T04:44:33.654Z,102039.70
2019-02-16T04:50:39.400Z,102036.77
2019-02-16T04:56:45.169Z,102032.99
2019-02-16T05:02:50.896Z,102028.03
2019-02-16T05:08:56.620Z,102017.84
2019-02-16T05:15:02.538Z,102020.45
2019-02-16T05:21:08.263Z,102011.95
2019-02-16T05:27:14.074Z,102018.55
2019-02-16T05:33:19.813Z,102027.41
2019-02-16T05:39:25.858Z,102019.38
2019-02-16T05:45:31.570Z,102031.88
2019-02-16T05:51:37.385Z,102036.67
2019-02-16T05:57:43.117Z,102036.45
2019-02-16T06:03:48.931Z,102027.81
2019-02-16T06:09:54.646Z,102024.28
2019-02-16T06:16:00.556Z,102031.70
2019-02-16T06:22:06.359Z,102028.30
2019-02-16T06:28:12.082Z,102035.56
2019-02-16T06:34:17.817Z,102039.94
2019-02-16T06:40:23.711Z,102043.23
2019-02-16T06:46:31.095Z,102041.64
2019-02-16T06:52:36.774Z,102049.70
2019-02-16T06:58:42.558Z,102059.11
2019-02-16T07:04:48.361Z,102062.02
2019-02-16T07:10:54.247Z,102067.84
2019-02-16T07:17:18.828Z,102062.84
2019-02-16T07:23:24.988Z,102064.06
2019-02-16T07:29:30.802Z,102074.17
2019-02-16T07:35:36.555Z,102084.41
2019-02-16T07:41:42.610Z,102088.36
2019-02-16T07:48:09.348Z,102100.83
2019-02-16T07:54:24.810Z,102092.11
2019-02-16T08:00:39.585Z,102095.92
2019-02-16T08:07:04.206Z,102097.82
2019-02-16T08:13:28.797Z,102113.26
2019-02-16T08:19:53.285Z,102098.84
2019-02-16T08:26:06.049Z,102101.53
2019-02-16T08:32:30.847Z,102090.36
2019-02-16T08:38:53.180Z,102093.59
2019-02-16T08:45:16.797Z,102096.62
2019-02-16T08:51:35.018Z,102088.83
2019-02-16T08:57:59.971Z,102091.91
2019-02-16T09:04:24.785Z,102076.19
2019-02-16T09:11:01.492Z,102083.27
2019-02-16T09:17:18.513Z,102071.16
2019-02-16T09:23:36.755Z,102080.80
2019-02-16T09:30:01.530Z,102082.77
2019-02-16T09:36:21.484Z,102081.09
2019-02-16T09:42:42.891Z,102079.70
2019-02-16T09:49:01.226Z,102076.58
2019-02-16T09:55:26.695Z,102086.25
2019-02-16T10:01:54.474Z,102081.65
2019-02-16T10:08:11.114Z,102082.31
2019-02-16T10:14:36.125Z,102082.64
2019-02-16T10:20:49.920Z,102090.56
2019-02-16T10:27:14.505Z,102099.16
2019-02-16T10:33:57.771Z,102101.62
2019-02-16T10:40:16.629Z,102113.02
2019-02-16T10:46:53.373Z,102116.34
2019-02-16T10:53:15.562Z,102116.52
2019-02-16T10:59:29.596Z,102110.63
2019-02-16T11:05:54.219Z,102097.18
2019-02-16T11:12:17.469Z,102089.44
2019-02-16T11:18:57.276Z,102081.69
2019-02-16T11:25:31.254Z,102076.57
2019-02-16T11:31:53.248Z,102069.73
2019-02-16T11:38:16.674Z,102075.59
2019-02-16T11:44:40.064Z,102072.70
2019-02-16T11:51:00.235Z,102065.84
2019-02-16T11:57:25.210Z,102047.45
2019-02-16T12:03:40.500Z,102051.98
2019-02-16T12:10:14.186Z,102052.52
2019-02-16T12:16:29.461Z,102033.66
2019-02-16T12:22:41.917Z,102029.31
2019-02-16T12:29:14.273Z,102023.22
2019-02-16T12:35:35.164Z,102021.92
2019-02-16T12:41:59.772Z,102013.16
2019-02-16T12:48:24.502Z,102020.69
2019-02-16T12:55:01.066Z,102014.53
2019-02-16T13:01:20.430Z,102003.09
2019-02-16T13:07:36.705Z,102009.28
2019-02-16T13:13:50.485Z,102006.22
2019-02-16T13:20:14.784Z,101999.59
2019-02-16T13:26:39.527Z,101996.09
2019-02-16T13:32:58.383Z,101998.73
2019-02-16T13:39:26.493Z,101992.55
2019-02-16T13:45:54.199Z,101992.09
2019-02-16T13:52:18.798Z,101985.02
2019-02-16T13:58:43.464Z,101985.45
2019-02-16T14:04:57.096Z,101985.45
2019-02-16T14:11:21.948Z,101980.56
2019-02-16T14:17:39.027Z,101982.77
2019-02-16T14:23:45.063Z,101980.10
2019-02-16T14:29:50.960Z,101986.28
2019-02-16T14:35:56.786Z,101979.65
2019-02-16T14:42:02.822Z,101977.00
2019-02-16T14:48:08.668Z,101977.00
2019-02-16T14:54:14.496Z,101975.22
2019-02-16T15:00:20.485Z,101971.69
2019-02-16T15:06:26.427Z,101971.69
2019-02-16T15:12:32.173Z,101962.87
2019-02-16T15:18:38.017Z,101961.95
2019-02-16T15:24:43.838Z,101963.77
2019-02-16T15:30:49.588Z,101961.55
2019-02-16T15:36:55.416Z,101961.99
2019-02-16T15:43:01.250Z,101962.44
2019-02-16T15:49:07.081Z,101949.65
2019-02-16T15:55:13.070Z,101949.20
2019-02-16T16:01:18.985Z,101951.89
2019-02-16T16:07:24.990Z,101951.91
2019-02-16T16:13:52.371Z,101947.90
2019-02-16T16:20:15.424Z,101949.66
2019-02-16T16:26:42.642Z,101947.84
2019-02-16T16:33:10.323Z,101949.99
2019-02-16T16:39:33.572Z,101947.30
2019-02-16T16:46:13.228Z,101955.13
2019-02-16T16:52:43.971Z,101952.34
2019-02-16T16:59:14.693Z,101951.27
2019-02-16T17:05:54.746Z,101963.49
2019-02-16T17:12:20.930Z,101963.75
2019-02-16T17:18:51.957Z,101960.05
2019-02-16T17:25:11.375Z,101964.23
2019-02-16T17:31:22.624Z,101964.42
2019-02-16T17:37:54.917Z,101965.02
2019-02-16T17:44:25.395Z,101962.91
2019-02-16T17:50:50.020Z,101962.54
2019-02-16T17:57:14.703Z,101964.54
2019-02-16T18:03:28.496Z,101984.33
2019-02-16T18:09:52.575Z,101983.92
2019-02-16T18:16:08.252Z,101992.14
2019-02-16T18:22:28.854Z,101990.70
2019-02-16T18:28:57.256Z,101991.51
2019-02-16T18:35:23.878Z,101984.28
2019-02-16T18:41:55.412Z,101989.78
2019-02-16T18:48:23.802Z,101992.59
2019-02-16T18:54:57.898Z,101986.70
2019-02-16T19:01:20.091Z,101979.82
2019-02-16T19:07:40.311Z,101989.25
2019-02-16T19:13:53.702Z,101986.02
2019-02-16T19:20:25.464Z,101985.08
2019-02-16T19:26:39.155Z,102000.48
2019-02-16T19:33:03.877Z,102001.36
2019-02-16T19:39:18.999Z,101993.37
2019-02-16T19:45:43.568Z,101992.54
2019-02-16T19:52:12.650Z,101988.13
2019-02-16T19:58:40.064Z,101980.39
2019-02-16T20:05:08.198Z,101989.45
2019-02-16T20:11:33.808Z,101992.52
2019-02-16T20:17:49.824Z,101985.68
2019-02-16T20:24:26.636Z,101989.31
2019-02-16T20:31:00.303Z,101984.16
2019-02-16T20:37:13.307Z,101987.84
2019-02-16T20:43:36.374Z,101983.36
2019-02-16T20:50:09.999Z,101976.95
2019-02-16T20:56:52.776Z,101988.85
2019-02-16T21:03:18.510Z,101983.70
2019-02-16T21:09:52.042Z,101985.14
2019-02-16T21:16:03.905Z,101988.00
2019-02-16T21:22:34.711Z,101984.57
2019-02-16T21:29:08.374Z,101982.14
2019-02-16T21:35:31.473Z,101978.56
2019-02-16T21:41:56.079Z,101973.03
2019-02-16T21:48:17.066Z,101978.39
2019-02-16T21:54:41.795Z,101979.73
2019-02-16T22:01:21.327Z,101980.33
2019-02-16T22:07:41.258Z,101979.64
2019-02-16T22:13:47.291Z,101972.87
2019-02-16T22:19:54.771Z,101970.19
2019-02-16T22:26:00.616Z,101977.08
2019-02-16T22:32:06.686Z,101976.30
2019-02-16T22:38:12.582Z,101981.23
2019-02-16T22:44:18.566Z,101987.77
2019-02-16T22:50:24.368Z,101985.94
2019-02-16T22:56:30.119Z,101978.98
2019-02-16T23:02:35.874Z,101984.66
2019-02-16T23:08:41.761Z,101994.11
2019-02-16T23:14:47.554Z,101993.83
2019-02-16T23:20:53.267Z,101983.91
2019-02-16T23:26:59.423Z,101979.50
2019-02-16T23:33:05.220Z,101971.28
2019-02-16T23:39:11.868Z,101968.67
2019-02-16T23:45:17.956Z,101963.91
2019-02-16T23:51:23.742Z,101962.36
2019-02-16T23:57:29.725Z,101956.08
